GLACIER NATIONAL PARK
LOGAN PASS HOURLY WEATHER ROUNDUP
LOGAN_PASS 8/21/2017
CLICK HERE TO VIEW GRAPH
All data is provisional.
Wind sensor is not heated. Riming can occur.
        DATE  TIME Temp F  % RH Watt/m Wind Speed Wind Dir Max Gust Press InHg     BATT
                                                                                         
                     (1HR) (1HR)     AVG      (1HR)    (1HR)      MAX        AVG      AVG

   8/21/2017 14:00      54    46  851.00          9      316       14      30.24    12.33
   8/21/2017 13:00      53    49  686.60          6      298       10      30.24    12.22
   8/21/2017 12:00      51    53  192.70          8      314       12      30.23    12.21
   8/21/2017 11:00      52    53  515.50          6      310       11      30.23    12.35
   8/21/2017 10:00      52    48  418.80          4      302        7      30.23    12.05
   8/21/2017 09:00      52    53  284.70          3      280        6      30.23    11.99
   8/21/2017 08:00      48    49   81.90          3      134        4      30.21    12.00
   8/21/2017 07:00      46    54    3.92          3      146        5      30.20    11.95
   8/21/2017 06:00      45    58    0.06          4      146        6      30.20    12.08
   8/21/2017 05:00      47    61    0.07          3       92        5      30.18    12.08
   8/21/2017 04:00      51    52    0.07          4      290        6      30.18    12.09
   8/21/2017 03:00      51    49    0.06          6      279       10      30.18    12.10
   8/21/2017 02:00      52    49    0.07          7      279       15      30.18    12.10
   8/21/2017 01:00      53    45    0.06          9      274       16      30.17    12.10
   8/20/2017 24:00      53    44    0.06         10      276       16      30.16    12.11
   8/20/2017 23:00      54    43    0.07         12      278       22      30.15    12.11
   8/20/2017 22:00      55    41    0.08         14      273       24      30.14    11.88
   8/20/2017 21:00      55    38   12.92         17      282       26      30.12    11.92
   8/20/2017 20:00      56    38  110.10         13      282       27      30.12    11.96
   8/20/2017 19:00      56    36  325.10         15      279       28      30.11    12.19
   8/20/2017 18:00      55    36  228.00         13      290       25      30.10    12.12
   8/20/2017 17:00      56    36  323.10         13      299       28      30.10    12.28
   8/20/2017 16:00      55    38  567.40         15      290       29      30.10    12.33
   8/20/2017 15:00      54    38  543.40         10      295       21      30.11    12.39
   8/20/2017 14:00      52    43  674.50         12      284       28      30.12    12.44
   8/20/2017 13:00      51    42  716.00         11      298       19      30.12    12.44
   8/20/2017 12:00      51    48  645.80          7      277       19      30.12    12.39
   8/20/2017 11:00      50    38  572.60          5      280       14      30.12    12.41
   8/20/2017 10:00      48    48  464.70          6      299       12      30.12    12.17
   8/20/2017 09:00      46    54  207.70          7      310       13      30.12    12.01
   8/20/2017 08:00      45    53   72.30          7      292       12      30.11    11.89
   8/20/2017 07:00      45    57    5.62          7      289       11      30.11    11.88
   8/20/2017 06:00      46    53    0.08          9      279       15      30.10    11.90
   8/20/2017 05:00      47    49    0.05          9      278       19      30.10    11.90
   8/20/2017 04:00      48    53    0.04          7      282       20      30.10    11.90
   8/20/2017 03:00      49    46    0.04         10      290       20      30.11    11.91
   8/20/2017 02:00      50    42    0.05          7      298       16      30.10    11.92
   8/20/2017 01:00      51    47    0.07          7      290       16      30.11    11.93
   8/19/2017 24:00      52    46    0.07          7      258       16      30.11    11.70
   8/19/2017 23:00      53    45    0.09         13      276       21      30.11    11.72
   8/19/2017 22:00      54    43    0.09         15      282       26      30.10    11.82
   8/19/2017 21:00      55    40   11.90         15      280       24      30.09    12.00
   8/19/2017 20:00      56    37   85.70         14      287       26      30.07    12.03
   8/19/2017 19:00      57    35  245.20         13      283       31      30.07    11.89
   8/19/2017 18:00      58    36  284.30         12      279       22      30.07    11.90
   8/19/2017 17:00      58    35  324.50          9      269       19      30.06    12.01
   8/19/2017 16:00      57    35  480.00          9      306       22      30.06    12.21
   8/19/2017 15:00      54    40  408.50          6      106       17      30.06    11.94


CLICK HERE TO VIEW GRAPH